METAR Data
IDs: Format: Raw Decoded Include TAF

Data at: 1747 UTC 25 Mar 2019

KDKR 251730Z AUTO 02005KT 10SM 22/18 A3017 RMK AO2
KDKR 251710Z AUTO 02006KT 10SM 20/18 A3017 RMK AO2
KDKR 251650Z AUTO 36005KT 10SM 19/17 A3017 RMK AO2
KDKR 251630Z AUTO 02005KT 8SM 19/18 A3017 RMK AO2
KDKR 251610Z AUTO 01007KT 10SM 19/17 A3017 RMK AO2
KDKR 251550Z AUTO 02007KT 8SM 19/18 A3017 RMK AO2
KDKR 251530Z AUTO 36008KT 5SM -RA 20/19 A3016 RMK AO2
KDKR 251510Z AUTO 27005KT 10SM 20/19 A3015 RMK AO2
KDKR 251450Z AUTO 23007KT 10SM 20/19 A3013 RMK AO2
KDKR 251430Z AUTO 22006KT 10SM 20/19 A3013 RMK AO2
KDKR 251410Z AUTO 22004KT 9SM 20/19 A3012 RMK AO2
KDKR 251350Z AUTO 21003KT 7SM 19/19 A3012 RMK AO2
KDKR 251330Z AUTO 21004KT 7SM 19/19 A3011 RMK AO2
KDKR 251310Z AUTO 20005KT 5SM BR 19/19 A3010 RMK AO2
KDKR 251250Z AUTO 00000KT 4SM BR 19/18 A3011 RMK AO2
KDKR 251230Z AUTO 00000KT 4SM BR 19/18 A3011 RMK AO2
KDKR 251210Z AUTO 00000KT 2 1/2SM BR 18/18 A3009 RMK AO2
KDKR 251150Z AUTO 00000KT 4SM -RA 19/17 A3009 RMK AO2
KDKR 251130Z AUTO 06004KT 10SM 19/16 A3009 RMK AO2
KDKR 251110Z AUTO 00000KT 10SM 19/18 A3009 RMK AO2
KDKR 251050Z AUTO 00000KT 10SM 19/18 A3008 RMK AO2
KDKR 251030Z AUTO 23005KT 10SM 20/18 A3008 RMK AO2
KDKR 251010Z AUTO 23007KT 10SM 20/18 A3007 RMK AO2 LTG DSNT N
KDKR 250950Z AUTO 24005KT 10SM 19/18 A3007 RMK AO2
KDKR 250930Z AUTO 23006KT 10SM 20/18 A3007 RMK AO2 LTG DSNT NW-NE
KDKR 250910Z AUTO 23007KT 10SM 20/18 A3007 RMK AO2 LTG DSNT N AND NE
KDKR 250850Z AUTO 24005KT 10SM 20/18 A3007 RMK AO2 LTG DSNT N AND NE
KDKR 250830Z AUTO 22007KT 10SM 20/18 A3006 RMK AO2
KDKR 250810Z AUTO 21008KT 10SM 20/18 A3006 RMK AO2
KDKR 250750Z AUTO 20006KT 10SM 20/18 A3005 RMK AO2 LTG DSNT NW
KDKR 250730Z AUTO 20007KT 10SM 19/18 A3004 RMK AO2
KDKR 250710Z AUTO 19008KT 10SM -RA 19/18 A3004 RMK AO2
KDKR 250650Z AUTO 18008KT 10SM -RA 19/18 A3005 RMK AO2
KDKR 250630Z AUTO 17009KT 10SM -RA 19/18 A3005 RMK AO2
KDKR 250610Z AUTO 18008KT 10SM -RA 19/18 A3007 RMK AO2
KDKR 250550Z AUTO 17007KT 10SM -RA 19/18 A3007 RMK AO2
KDKR 250530Z AUTO 18004KT 10SM 19/18 A3008 RMK AO2
KDKR 250510Z AUTO 17005KT 10SM 18/18 A3008 RMK AO2
KDKR 250450Z AUTO 18006KT 10SM -RA 19/18 A3008 RMK AO2
KDKR 250430Z AUTO 16006KT 10SM -RA 19/18 A3008 RMK AO2
KDKR 250410Z AUTO 18007KT 10SM -RA 19/18 A3008 RMK AO2
KDKR 250350Z AUTO 17006KT 10SM -RA 19/18 A3008 RMK AO2
KDKR 250330Z AUTO 16007KT 10SM 20/18 A3008 RMK AO2
KDKR 250310Z AUTO 16006KT 10SM -RA 20/18 A3007 RMK AO2
KDKR 250250Z AUTO 16007KT 10SM -RA 20/18 A3006 RMK AO2
KDKR 250230Z AUTO 16008KT 10SM -RA 20/18 A3005 RMK AO2
KDKR 250210Z AUTO 16008KT 10SM -RA 20/18 A3005 RMK AO2
KDKR 250150Z AUTO 16008KT 10SM -RA 21/18 A3004 RMK AO2
KDKR 250130Z AUTO 16006KT 10SM -RA 21/18 A3004 RMK AO2
KDKR 250110Z AUTO 15006KT 10SM 22/18 A3003 RMK AO2
KDKR 250050Z AUTO 15006KT 10SM -RA 22/18 A3003 RMK AO2
KDKR 250030Z AUTO 15006KT 10SM -RA 23/18 A3003 RMK AO2
KDKR 250010Z AUTO 15005KT 10SM -RA 23/18 A3003 RMK AO2
KDKR 242350Z AUTO 16008KT 10SM 24/18 A3003 RMK AO2
KDKR 242330Z AUTO 16008KT 10SM 25/18 A3003 RMK AO2
KDKR 242310Z AUTO 16005KT 10SM 25/18 A3003 RMK AO2
KDKR 242250Z AUTO 16007KT 10SM 26/18 A3003 RMK AO2
KDKR 242230Z AUTO 13006KT 10SM 26/18 A3004 RMK AO2
KDKR 242210Z AUTO 15007KT 120V180 10SM 27/18 A3004 RMK AO2
KDKR 242150Z AUTO 21008KT 10SM 27/18 A3004 RMK AO2
KDKR 242130Z AUTO 22005KT 10SM 26/18 A3005 RMK AO2
KDKR 242110Z AUTO 19007KT 10SM 25/18 A3005 RMK AO2
KDKR 242050Z AUTO 17007KT 10SM 25/17 A3006 RMK AO2
KDKR 242030Z AUTO 20006KT 10SM 25/17 A3006 RMK AO2
KDKR 242010Z AUTO 20005KT 10SM 24/17 A3007 RMK AO2
KDKR 241950Z AUTO 19008KT 10SM 25/18 A3007 RMK AO2
KDKR 241930Z AUTO 18010KT 10SM 25/18 A3008 RMK AO2
KDKR 241910Z AUTO 22006KT 10SM 24/18 A3009 RMK AO2
KDKR 241850Z AUTO 22008KT 10SM 23/18 A3010 RMK AO2
KDKR 241830Z AUTO 20005KT 10SM 23/18 A3011 RMK AO2
KDKR 241810Z AUTO 21008KT 10SM 22/17 A3012 RMK AO2
KDKR 241750Z AUTO 22005KT 10SM 22/18 A3013 RMK AO2
KDKR 241730Z AUTO 21005KT 10SM 21/17 A3014 RMK AO2
KDKR 241715Z AUTO 20007KT 10SM 20/17 A3014 RMK AO2
KDKR 241655Z AUTO 20008KT 10SM -RA 21/17 A3015 RMK AO2
KDKR 241635Z AUTO 17007KT 9SM -RA 20/17 A3015 RMK AO2
KDKR 241615Z AUTO 18007KT 7SM -RA 19/17 A3016 RMK AO2
KDKR 241555Z AUTO 18005KT 5SM BR 18/17 A3017 RMK AO2
KDKR 241535Z AUTO 18004KT 5SM BR 17/16 A3016 RMK AO2
KDKR 241515Z AUTO 19005KT 4SM BR 17/16 A3016 RMK AO2
KDKR 241455Z AUTO 19006KT 5SM BR 17/16 A3016 RMK AO2
KDKR 241435Z AUTO 19006KT 6SM BR 16/15 A3016 RMK AO2
KDKR 241415Z AUTO 18005KT 5SM BR 16/15 A3015 RMK AO2
KDKR 241355Z AUTO 00000KT 6SM BR 15/15 A3014 RMK AO2
KDKR 241335Z AUTO 00000KT 6SM BR 15/15 A3013 RMK AO2
KDKR 241315Z AUTO 00000KT 5SM BR 15/14 A3013 RMK AO2
KDKR 241255Z AUTO 00000KT 5SM BR 14/14 A3012 RMK AO2
KDKR 241235Z AUTO 00000KT 6SM BR 14/14 A3012 RMK AO2
KDKR 241215Z AUTO 16003KT 7SM 14/13 A3012 RMK AO2
KDKR 241155Z AUTO 00000KT 7SM 14/13 A3012 RMK AO2
KDKR 241135Z AUTO 00000KT 9SM 14/13 A3012 RMK AO2
KDKR 241115Z AUTO 00000KT 10SM 14/13 A3012 RMK AO2
KDKR 241055Z AUTO 14004KT 10SM 14/13 A3011 RMK AO2
KDKR 241035Z AUTO 00000KT 10SM 14/13 A3011 RMK AO2
KDKR 241015Z AUTO 00000KT 10SM 14/13 A3011 RMK AO2
KDKR 240955Z AUTO 00000KT 10SM 14/13 A3011 RMK AO2
KDKR 240935Z AUTO 00000KT 10SM 14/13 A3011 RMK AO2
KDKR 240915Z AUTO 00000KT 10SM 14/13 A3012 RMK AO2
KDKR 240855Z AUTO 00000KT 10SM 15/13 A3011 RMK AO2
KDKR 240835Z AUTO 00000KT 10SM 15/13 A3011 RMK AO2
KDKR 240815Z AUTO 15006KT 10SM -RA 15/13 A3011 RMK AO2
KDKR 240755Z AUTO 16006KT 10SM -RA 15/13 A3012 RMK AO2
KDKR 240735Z AUTO 15006KT 10SM 15/13 A3012 RMK AO2
KDKR 240715Z AUTO 15006KT 10SM -RA 15/13 A3012 RMK AO2
KDKR 240655Z AUTO 15004KT 10SM 15/13 A3013 RMK AO2
KDKR 240635Z AUTO 16005KT 10SM 16/13 A3013 RMK AO2
KDKR 240615Z AUTO 17004KT 10SM 16/13 A3013 RMK AO2
KDKR 240555Z AUTO 17005KT 10SM 17/13 A3013 RMK AO2